Time,TemperatureF,DewpointF,PressureIn,WindDirection,WindDirectionDegrees,WindSpeedMPH,WindSpeedGustMPH,Humidity,HourlyPrecipIn,Conditions,Clouds,dailyrainin,SoftwareType,DateUTC
2013-01-07 00:05:00,32.2,11.7,29.21,West,281,0.0,0.0,42,0.00,,---,0.00,VWS V14.01,2013-01-07 06:05:00,
2013-01-07 00:10:00,32.2,11.7,29.21,West,281,0.0,0.0,42,0.00,,---,0.00,VWS V14.01,2013-01-07 06:10:00,
2013-01-07 00:15:00,32.0,11.5,29.21,SSW,211,3.6,3.6,42,0.00,,---,0.00,VWS V14.01,2013-01-07 06:15:00,
2013-01-07 00:20:00,32.0,11.5,29.21,South,183,0.0,0.0,42,0.00,,---,0.00,VWS V14.01,2013-01-07 06:20:00,
2013-01-07 00:26:00,31.8,11.4,29.21,NW,326,0.0,0.0,42,0.00,,---,0.00,VWS V14.01,2013-01-07 06:26:00,
2013-01-07 00:32:00,32.0,11.5,29.18,SW,234,6.3,6.3,42,0.00,,---,0.00,VWS V14.01,2013-01-07 06:32:00,
2013-01-07 00:38:00,32.0,11.5,29.18,South,182,0.0,0.0,42,0.00,,---,0.00,VWS V14.01,2013-01-07 06:38:00,
2013-01-07 00:43:00,32.2,12.2,29.18,NW,326,0.0,0.0,43,0.00,,---,0.00,VWS V14.01,2013-01-07 06:43:00,
2013-01-07 00:49:00,32.2,12.2,29.18,SSW,212,5.4,5.4,43,0.00,,---,0.00,VWS V14.01,2013-01-07 06:49:00,
2013-01-07 00:54:00,32.5,12.0,29.18,SSW,199,0.0,0.0,42,0.00,,---,0.00,VWS V14.01,2013-01-07 06:54:00,
2013-01-07 00:59:00,32.5,12.0,29.18,NW,305,4.0,5.4,42,0.00,,---,0.00,VWS V14.01,2013-01-07 06:59:00,
2013-01-07 01:05:00,32.7,12.2,29.18,SW,227,0.0,0.0,42,0.00,,---,0.00,VWS V14.01,2013-01-07 07:05:00,
2013-01-07 01:10:00,32.7,12.2,29.18,SW,226,5.8,5.8,42,0.00,,---,0.00,VWS V14.01,2013-01-07 07:10:00,
2013-01-07 01:16:00,32.5,12.0,29.18,SW,226,5.8,5.8,42,0.00,,---,0.00,VWS V14.01,2013-01-07 07:16:00,
2013-01-07 01:21:00,32.5,12.0,29.18,NW,311,4.0,4.0,42,0.00,,---,0.00,VWS V14.01,2013-01-07 07:21:00,
2013-01-07 01:26:00,32.5,12.0,29.18,NW,311,4.0,4.0,42,0.00,,---,0.00,VWS V14.01,2013-01-07 07:26:00,
2013-01-07 01:31:00,32.5,12.0,29.18,WSW,253,7.2,7.2,42,0.00,,---,0.00,VWS V14.01,2013-01-07 07:31:00,
2013-01-07 01:37:00,32.5,12.0,29.18,NNW,333,0.0,0.0,42,0.00,,---,0.00,VWS V14.01,2013-01-07 07:37:00,
2013-01-07 01:42:00,32.4,11.9,29.18,NNW,333,0.0,0.0,42,0.00,,---,0.00,VWS V14.01,2013-01-07 07:42:00,
2013-01-07 01:48:00,32.2,11.7,29.18,SW,223,2.2,2.2,42,0.00,,---,0.00,VWS V14.01,2013-01-07 07:48:00,
2013-01-07 01:53:00,32.2,11.7,29.18,ESE,113,2.7,2.7,42,0.00,,---,0.00,VWS V14.01,2013-01-07 07:53:00,
2013-01-07 01:59:00,32.2,12.2,29.18,WNW,285,0.0,0.0,43,0.00,,---,0.00,VWS V14.01,2013-01-07 07:59:00,
2013-01-07 02:04:00,32.0,12.1,29.18,West,280,0.0,4.0,43,0.00,,---,0.00,VWS V14.01,2013-01-07 08:04:00,
2013-01-07 02:10:00,32.0,12.1,29.18,WNW,284,0.0,0.0,43,0.00,,---,0.00,VWS V14.01,2013-01-07 08:10:00,
2013-01-07 02:15:00,31.8,11.9,29.18,West,262,0.0,0.0,43,0.00,,---,0.00,VWS V14.01,2013-01-07 08:15:00,
2013-01-07 02:21:00,31.8,11.9,29.18,West,262,0.0,0.0,43,0.00,,---,0.00,VWS V14.01,2013-01-07 08:21:00,
2013-01-07 02:26:00,31.8,11.9,29.18,SW,236,3.1,3.1,43,0.00,,---,0.00,VWS V14.01,2013-01-07 08:26:00,
2013-01-07 02:31:00,32.0,12.1,29.18,SSW,208,0.0,5.4,43,0.00,,---,0.00,VWS V14.01,2013-01-07 08:31:00,
2013-01-07 02:37:00,32.0,12.1,29.18,SE,136,0.0,0.0,43,0.00,,---,0.00,VWS V14.01,2013-01-07 08:37:00,
2013-01-07 02:42:00,32.0,12.1,29.18,ESE,109,0.0,0.0,43,0.00,,---,0.00,VWS V14.01,2013-01-07 08:42:00,
2013-01-07 02:48:00,32.0,12.1,29.18,WNW,286,0.0,0.0,43,0.00,,---,0.00,VWS V14.01,2013-01-07 08:48:00,
2013-01-07 02:53:00,32.0,12.1,29.18,South,181,0.0,0.0,43,0.00,,---,0.00,VWS V14.01,2013-01-07 08:53:00,
2013-01-07 02:58:00,31.6,11.7,29.18,SSW,207,0.0,2.2,43,0.00,,---,0.00,VWS V14.01,2013-01-07 08:58:00,
2013-01-07 03:04:00,31.3,11.4,29.18,SW,220,0.0,2.2,43,0.00,,---,0.00,VWS V14.01,2013-01-07 09:04:00,
2013-01-07 03:09:00,31.3,11.4,29.18,SSW,202,0.0,0.0,43,0.00,,---,0.00,VWS V14.01,2013-01-07 09:09:00,
2013-01-07 03:15:00,31.1,11.8,29.18,WSW,237,0.0,0.0,44,0.00,,---,0.00,VWS V14.01,2013-01-07 09:15:00,
2013-01-07 03:20:00,30.9,11.6,29.18,WSW,257,0.0,0.0,44,0.00,,---,0.00,VWS V14.01,2013-01-07 09:20:00,
2013-01-07 03:26:00,30.7,11.4,29.18,WSW,240,0.0,0.0,44,0.00,,---,0.00,VWS V14.01,2013-01-07 09:26:00,
2013-01-07 03:31:00,30.6,11.2,29.18,SW,228,2.2,2.2,44,0.00,,---,0.00,VWS V14.01,2013-01-07 09:31:00,
2013-01-07 03:37:00,30.4,11.1,29.18,WNW,296,0.0,0.0,44,0.00,,---,0.00,VWS V14.01,2013-01-07 09:37:00,
2013-01-07 03:42:00,30.2,11.4,29.18,West,271,0.0,0.0,45,0.00,,---,0.00,VWS V14.01,2013-01-07 09:42:00,
2013-01-07 03:48:00,30.2,11.4,29.18,NNW,331,0.0,0.0,45,0.00,,---,0.00,VWS V14.01,2013-01-07 09:48:00,
2013-01-07 03:53:00,30.0,11.8,29.18,NW,322,0.0,0.0,46,0.00,,---,0.00,VWS V14.01,2013-01-07 09:53:00,
2013-01-07 03:58:00,30.0,11.8,29.18,South,175,0.0,0.0,46,0.00,,---,0.00,VWS V14.01,2013-01-07 09:58:00,
2013-01-07 04:04:00,30.0,11.8,29.18,WSW,251,3.1,3.1,46,0.00,,---,0.00,VWS V14.01,2013-01-07 10:04:00,
2013-01-07 04:09:00,30.4,12.1,29.18,West,268,0.0,4.5,46,0.00,,---,0.00,VWS V14.01,2013-01-07 10:09:00,
2013-01-07 04:15:00,30.4,12.1,29.15,NW,320,0.0,0.0,46,0.00,,---,0.00,VWS V14.01,2013-01-07 10:15:00,
2013-01-07 04:20:00,30.4,12.1,29.15,SW,218,0.0,0.0,46,0.00,,---,0.00,VWS V14.01,2013-01-07 10:20:00,
2013-01-07 04:26:00,30.6,11.8,29.15,NW,311,3.1,3.1,45,0.00,,---,0.00,VWS V14.01,2013-01-07 10:26:00,
2013-01-07 04:31:00,30.6,11.8,29.15,WNW,286,5.8,5.8,45,0.00,,---,0.00,VWS V14.01,2013-01-07 10:31:00,
2013-01-07 04:37:00,30.4,11.6,29.15,NW,321,0.0,0.0,45,0.00,,---,0.00,VWS V14.01,2013-01-07 10:37:00,
2013-01-07 04:43:00,30.4,11.6,29.15,West,276,6.7,6.7,45,0.00,,---,0.00,VWS V14.01,2013-01-07 10:43:00,
2013-01-07 04:48:00,30.4,11.6,29.15,West,274,0.0,0.0,45,0.00,,---,0.00,VWS V14.01,2013-01-07 10:48:00,
2013-01-07 04:53:00,30.4,11.6,29.15,SW,230,0.0,0.0,45,0.00,,---,0.00,VWS V14.01,2013-01-07 10:53:00,
2013-01-07 04:58:00,30.2,11.9,29.15,NW,326,0.0,2.2,46,0.00,,---,0.00,VWS V14.01,2013-01-07 10:58:00,
2013-01-07 05:03:00,30.4,12.1,29.15,SSW,203,0.0,0.0,46,0.00,,---,0.00,VWS V14.01,2013-01-07 11:03:00,
2013-01-07 05:08:00,30.4,11.6,29.15,SW,235,6.3,6.3,45,0.00,,---,0.00,VWS V14.01,2013-01-07 11:08:00,
2013-01-07 05:14:00,30.4,11.6,29.15,SSW,211,2.7,2.7,45,0.00,,---,0.00,VWS V14.01,2013-01-07 11:14:00,
2013-01-07 05:19:00,30.4,11.6,29.15,WSW,257,0.0,0.0,45,0.00,,---,0.00,VWS V14.01,2013-01-07 11:19:00,
2013-01-07 05:25:00,30.2,11.9,29.15,SSW,202,0.0,2.7,46,0.00,,---,0.00,VWS V14.01,2013-01-07 11:25:00,
2013-01-07 05:30:00,30.2,11.9,29.15,SW,216,2.2,2.2,46,0.00,,---,0.00,VWS V14.01,2013-01-07 11:30:00,
2013-01-07 05:36:00,29.8,11.6,29.15,West,281,3.6,3.6,46,0.00,,---,0.00,VWS V14.01,2013-01-07 11:36:00,
2013-01-07 05:41:00,29.8,11.6,29.15,WSW,256,0.0,0.0,46,0.00,,---,0.00,VWS V14.01,2013-01-07 11:41:00,
2013-01-07 05:47:00,30.0,11.8,29.15,SSW,207,0.0,0.0,46,0.00,,---,0.00,VWS V14.01,2013-01-07 11:47:00,
2013-01-07 05:52:00,30.2,11.9,29.15,NNW,339,4.0,4.0,46,0.00,,---,0.00,VWS V14.01,2013-01-07 11:52:00,
2013-01-07 05:57:00,30.2,11.9,29.15,SSW,204,0.0,0.0,46,0.00,,---,0.00,VWS V14.01,2013-01-07 11:57:00,
2013-01-07 06:03:00,30.0,11.8,29.15,NW,308,0.0,0.0,46,0.00,,---,0.00,VWS V14.01,2013-01-07 12:03:00,
2013-01-07 06:08:00,29.8,11.6,29.15,West,264,0.0,0.0,46,0.00,,---,0.00,VWS V14.01,2013-01-07 12:08:00,
2013-01-07 06:14:00,29.7,11.9,29.15,North,353,0.0,0.0,47,0.00,,---,0.00,VWS V14.01,2013-01-07 12:14:00,
2013-01-07 06:19:00,29.5,11.3,29.15,West,275,0.0,0.0,46,0.00,,---,0.00,VWS V14.01,2013-01-07 12:19:00,
2013-01-07 06:25:00,29.5,11.3,29.15,SSW,201,0.0,0.0,46,0.00,,---,0.00,VWS V14.01,2013-01-07 12:25:00,
2013-01-07 06:30:00,29.5,11.8,29.15,SSE,166,0.0,3.1,47,0.00,,---,0.00,VWS V14.01,2013-01-07 12:30:00,
2013-01-07 06:36:00,29.5,11.8,29.15,WSW,244,3.1,3.1,47,0.00,,---,0.00,VWS V14.01,2013-01-07 12:36:00,
2013-01-07 06:42:00,29.7,11.4,29.15,SSW,212,2.7,2.7,46,0.00,,---,0.00,VWS V14.01,2013-01-07 12:42:00,
2013-01-07 06:47:00,29.7,11.4,29.15,WNW,293,0.0,0.0,46,0.00,,---,0.00,VWS V14.01,2013-01-07 12:47:00,
2013-01-07 06:53:00,30.2,12.4,29.15,SSE,156,0.0,0.0,47,0.00,,---,0.00,VWS V14.01,2013-01-07 12:53:00,
2013-01-07 06:59:00,30.0,11.8,29.15,NW,315,0.0,2.7,46,0.00,,---,0.00,VWS V14.01,2013-01-07 12:59:00,
2013-01-07 07:04:00,30.0,11.8,29.15,SW,223,0.0,2.7,46,0.00,,---,0.00,VWS V14.01,2013-01-07 13:04:00,
2013-01-07 07:10:00,30.0,11.8,29.15,SSW,202,0.0,0.0,46,0.00,,---,0.00,VWS V14.01,2013-01-07 13:10:00,
2013-01-07 07:15:00,30.0,11.8,29.15,SSW,213,0.0,0.0,46,0.00,,---,0.00,VWS V14.01,2013-01-07 13:15:00,
2013-01-07 07:21:00,30.0,11.8,29.15,WSW,256,0.0,0.0,46,0.00,,---,0.00,VWS V14.01,2013-01-07 13:21:00,
2013-01-07 07:26:00,29.5,10.8,29.15,East,95,2.7,2.7,45,0.00,,---,0.00,VWS V14.01,2013-01-07 13:26:00,
2013-01-07 07:32:00,29.1,10.9,29.15,WNW,301,0.0,0.0,46,0.00,,---,0.00,VWS V14.01,2013-01-07 13:32:00,
2013-01-07 07:37:00,29.1,10.9,29.15,WSW,250,0.0,0.0,46,0.00,,---,0.00,VWS V14.01,2013-01-07 13:37:00,
2013-01-07 07:42:00,29.3,11.6,29.15,SW,227,8.1,8.1,47,0.00,,---,0.00,VWS V14.01,2013-01-07 13:42:00,
2013-01-07 07:48:00,29.5,11.8,29.15,WSW,254,0.0,0.0,47,0.00,,---,0.00,VWS V14.01,2013-01-07 13:48:00,
2013-01-07 07:53:00,29.7,11.9,29.15,West,259,0.0,0.0,47,0.00,,---,0.00,VWS V14.01,2013-01-07 13:53:00,
2013-01-07 07:59:00,30.2,11.9,29.15,SSW,194,0.0,0.0,46,0.00,,---,0.00,VWS V14.01,2013-01-07 13:59:00,
2013-01-07 08:04:00,30.2,11.9,29.15,WSW,246,0.0,0.0,46,0.00,,---,0.00,VWS V14.01,2013-01-07 14:04:00,
2013-01-07 08:10:00,30.2,11.9,29.15,SSE,166,0.0,0.0,46,0.00,,---,0.00,VWS V14.01,2013-01-07 14:10:00,
2013-01-07 08:16:00,31.1,12.2,29.12,WSW,242,0.0,0.0,45,0.00,,---,0.00,VWS V14.01,2013-01-07 14:16:00,
2013-01-07 08:21:00,31.5,12.6,29.12,WSW,254,2.7,5.4,45,0.00,,---,0.00,VWS V14.01,2013-01-07 14:21:00,
2013-01-07 08:27:00,32.4,12.9,29.12,WSW,247,3.1,3.1,44,0.00,,---,0.00,VWS V14.01,2013-01-07 14:27:00,
2013-01-07 08:32:00,32.4,12.9,29.12,North,353,0.0,0.0,44,0.00,,---,0.00,VWS V14.01,2013-01-07 14:32:00,
2013-01-07 08:38:00,34.3,13.6,29.12,SSW,193,0.0,0.0,42,0.00,,---,0.00,VWS V14.01,2013-01-07 14:38:00,
2013-01-07 08:43:00,34.5,13.8,29.12,NW,318,2.2,2.2,42,0.00,,---,0.00,VWS V14.01,2013-01-07 14:43:00,
2013-01-07 08:49:00,36.1,14.7,29.15,WSW,242,0.0,0.0,41,0.00,,---,0.00,VWS V14.01,2013-01-07 14:49:00,
2013-01-07 08:55:00,36.9,15.4,29.15,South,171,0.0,0.0,41,0.00,,---,0.00,VWS V14.01,2013-01-07 14:55:00,
2013-01-07 09:00:00,37.6,16.0,29.15,ESE,115,0.0,0.0,41,0.00,,---,0.00,VWS V14.01,2013-01-07 15:00:00,
2013-01-07 09:06:00,37.6,16.0,29.15,South,181,0.0,0.0,41,0.00,,---,0.00,VWS V14.01,2013-01-07 15:06:00,
2013-01-07 09:11:00,39.6,16.7,29.15,WNW,292,0.0,0.0,39,0.00,,---,0.00,VWS V14.01,2013-01-07 15:11:00,
2013-01-07 09:16:00,40.5,16.9,29.15,South,183,0.0,0.0,38,0.00,,---,0.00,VWS V14.01,2013-01-07 15:16:00,
2013-01-07 09:21:00,41.2,16.3,29.15,WNW,303,0.0,5.4,36,0.00,,---,0.00,VWS V14.01,2013-01-07 15:21:00,
2013-01-07 09:27:00,41.7,16.8,29.15,East,100,0.0,0.0,36,0.00,,---,0.00,VWS V14.01,2013-01-07 15:27:00,
2013-01-07 09:32:00,41.7,16.8,29.15,NW,315,6.3,6.3,36,0.00,,---,0.00,VWS V14.01,2013-01-07 15:32:00,
2013-01-07 09:38:00,42.8,15.7,29.15,South,184,0.0,5.8,33,0.00,,---,0.00,VWS V14.01,2013-01-07 15:38:00,
2013-01-07 09:44:00,44.2,17.0,29.15,NW,312,3.6,4.0,33,0.00,,---,0.00,VWS V14.01,2013-01-07 15:44:00,
2013-01-07 09:49:00,44.8,16.0,29.15,WNW,290,2.7,6.3,31,0.00,,---,0.00,VWS V14.01,2013-01-07 15:49:00,
2013-01-07 09:54:00,45.3,16.5,29.15,WNW,287,6.3,6.3,31,0.00,,---,0.00,VWS V14.01,2013-01-07 15:54:00,
2013-01-07 09:59:00,45.5,16.6,29.15,WSW,238,2.7,6.3,31,0.00,,---,0.00,VWS V14.01,2013-01-07 15:59:00,
2013-01-07 10:05:00,45.9,16.2,29.15,NW,319,0.0,5.8,30,0.00,,---,0.00,VWS V14.01,2013-01-07 16:05:00,
2013-01-07 10:10:00,46.0,16.4,29.15,SSW,200,3.6,3.6,30,0.00,,---,0.00,VWS V14.01,2013-01-07 16:10:00,
2013-01-07 10:16:00,46.4,16.7,29.15,SW,218,2.7,2.7,30,0.00,,---,0.00,VWS V14.01,2013-01-07 16:16:00,
2013-01-07 10:22:00,46.9,16.4,29.15,WNW,301,4.0,4.0,29,0.00,,---,0.00,VWS V14.01,2013-01-07 16:22:00,
2013-01-07 10:27:00,46.2,16.5,29.15,WNW,282,0.0,3.1,30,0.00,,---,0.00,VWS V14.01,2013-01-07 16:27:00,
2013-01-07 10:32:00,46.2,16.5,29.15,SSE,154,3.6,3.6,30,0.00,,---,0.00,VWS V14.01,2013-01-07 16:32:00,
2013-01-07 10:37:00,46.9,17.1,29.15,West,262,3.6,3.6,30,0.00,,---,0.00,VWS V14.01,2013-01-07 16:37:00,
2013-01-07 10:43:00,47.8,17.9,29.15,South,185,2.7,3.1,30,0.00,,---,0.00,VWS V14.01,2013-01-07 16:43:00,
2013-01-07 10:48:00,48.7,17.9,29.15,SSW,203,3.6,4.9,29,0.00,,---,0.00,VWS V14.01,2013-01-07 16:48:00,
2013-01-07 10:54:00,49.1,18.2,29.15,WNW,288,3.1,3.1,29,0.00,,---,0.00,VWS V14.01,2013-01-07 16:54:00,
2013-01-07 10:59:00,48.4,16.8,29.15,SSE,149,0.0,2.7,28,0.00,,---,0.00,VWS V14.01,2013-01-07 16:59:00,
2013-01-07 11:05:00,48.0,17.3,29.12,East,89,2.2,2.2,29,0.00,,---,0.00,VWS V14.01,2013-01-07 17:05:00,
2013-01-07 11:10:00,48.4,16.8,29.12,West,281,4.0,4.0,28,0.00,,---,0.00,VWS V14.01,2013-01-07 17:10:00,
2013-01-07 11:16:00,49.5,18.5,29.12,SSW,210,3.1,3.1,29,0.00,,---,0.00,VWS V14.01,2013-01-07 17:16:00,
2013-01-07 11:21:00,50.4,18.5,29.12,West,265,4.9,4.9,28,0.00,,---,0.00,VWS V14.01,2013-01-07 17:21:00,
2013-01-07 11:26:00,51.1,18.3,29.12,SW,214,8.1,8.1,27,0.00,,---,0.00,VWS V14.01,2013-01-07 17:26:00,
2013-01-07 11:31:00,51.4,18.6,29.12,SSE,167,2.2,2.2,27,0.00,,---,0.00,VWS V14.01,2013-01-07 17:31:00,
2013-01-07 11:37:00,52.9,19.8,29.12,NNW,344,3.1,5.8,27,0.00,,---,0.00,VWS V14.01,2013-01-07 17:37:00,
2013-01-07 11:43:00,52.5,19.5,29.09,West,262,5.4,5.4,27,0.00,,---,0.00,VWS V14.01,2013-01-07 17:43:00,
2013-01-07 11:48:00,53.1,20.0,29.09,North,357,2.2,6.3,27,0.00,,---,0.00,VWS V14.01,2013-01-07 17:48:00,
2013-01-07 11:54:00,53.2,20.1,29.09,WNW,301,4.9,4.9,27,0.00,,---,0.00,VWS V14.01,2013-01-07 17:54:00,
2013-01-07 11:59:00,53.2,20.1,29.09,SSW,209,0.0,0.0,27,0.00,,---,0.00,VWS V14.01,2013-01-07 17:59:00,
2013-01-07 12:05:00,54.0,19.9,29.09,SSW,204,0.0,6.3,26,0.00,,---,0.00,VWS V14.01,2013-01-07 18:05:00,
2013-01-07 12:10:00,55.0,20.8,29.09,WSW,248,0.0,0.0,26,0.00,,---,0.00,VWS V14.01,2013-01-07 18:10:00,
2013-01-07 12:15:00,55.0,20.8,29.09,SSW,211,2.7,2.7,26,0.00,,---,0.00,VWS V14.01,2013-01-07 18:15:00,
2013-01-07 12:21:00,55.0,20.8,29.09,SE,141,4.0,4.0,26,0.00,,---,0.00,VWS V14.01,2013-01-07 18:21:00,
2013-01-07 12:26:00,54.9,20.6,29.09,SSW,193,0.0,4.0,26,0.00,,---,0.00,VWS V14.01,2013-01-07 18:26:00,
2013-01-07 12:31:00,55.0,20.8,29.06,SSW,211,4.0,4.0,26,0.00,,---,0.00,VWS V14.01,2013-01-07 18:31:00,
2013-01-07 12:36:00,55.2,21.0,29.06,SSW,195,0.0,0.0,26,0.00,,---,0.00,VWS V14.01,2013-01-07 18:36:00,
2013-01-07 12:42:00,55.2,21.0,29.06,South,179,4.0,4.0,26,0.00,,---,0.00,VWS V14.01,2013-01-07 18:42:00,
2013-01-07 12:47:00,54.7,20.5,29.06,SSE,156,3.6,4.0,26,0.00,,---,0.00,VWS V14.01,2013-01-07 18:47:00,
2013-01-07 12:53:00,54.7,20.5,29.06,SSW,195,3.1,3.1,26,0.00,,---,0.00,VWS V14.01,2013-01-07 18:53:00,
2013-01-07 12:58:00,55.0,20.8,29.06,SSW,212,3.6,3.6,26,0.00,,---,0.00,VWS V14.01,2013-01-07 18:58:00,
2013-01-07 13:04:00,55.6,20.3,29.06,South,169,0.0,0.0,25,0.00,,---,0.00,VWS V14.01,2013-01-07 19:04:00,
2013-01-07 13:09:00,56.5,21.1,29.06,SSE,153,5.4,6.3,25,0.00,,---,0.00,VWS V14.01,2013-01-07 19:09:00,
2013-01-07 13:15:00,57.2,21.7,29.03,West,271,7.2,7.2,25,0.00,,---,0.00,VWS V14.01,2013-01-07 19:15:00,
2013-01-07 13:21:00,56.7,21.3,29.03,WNW,301,5.4,5.4,25,0.00,,---,0.00,VWS V14.01,2013-01-07 19:21:00,
2013-01-07 13:26:00,55.9,20.6,29.03,SW,231,8.7,8.7,25,0.00,,---,0.00,VWS V14.01,2013-01-07 19:26:00,
2013-01-07 13:31:00,55.9,20.6,29.03,SW,214,6.3,6.3,25,0.00,,---,0.00,VWS V14.01,2013-01-07 19:31:00,
2013-01-07 13:36:00,54.3,20.2,29.03,SSW,202,4.9,4.9,26,0.00,,---,0.00,VWS V14.01,2013-01-07 19:36:00,
2013-01-07 13:41:00,54.3,20.2,29.03,ENE,73,3.1,7.2,26,0.00,,---,0.00,VWS V14.01,2013-01-07 19:41:00,
2013-01-07 13:46:00,53.6,18.6,29.03,WSW,239,6.3,6.3,25,0.00,,---,0.00,VWS V14.01,2013-01-07 19:46:00,
2013-01-07 13:52:00,53.2,19.3,29.03,SSE,156,4.9,4.9,26,0.00,,---,0.00,VWS V14.01,2013-01-07 19:52:00,
2013-01-07 13:57:00,52.9,19.0,29.03,South,173,3.6,3.6,26,0.00,,---,0.00,VWS V14.01,2013-01-07 19:57:00,
2013-01-07 14:03:00,52.5,18.6,29.03,NW,312,6.3,6.3,26,0.00,,---,0.00,VWS V14.01,2013-01-07 20:03:00,
2013-01-07 14:08:00,52.3,18.5,29.03,SE,146,0.0,3.1,26,0.00,,---,0.00,VWS V14.01,2013-01-07 20:08:00,
2013-01-07 14:13:00,52.0,18.2,29.03,SSW,195,4.9,4.9,26,0.00,,---,0.00,VWS V14.01,2013-01-07 20:13:00,
2013-01-07 14:18:00,52.0,18.2,29.03,SW,221,0.0,0.0,26,0.00,,---,0.00,VWS V14.01,2013-01-07 20:18:00,
2013-01-07 14:19:00,52.0,18.2,29.03,SW,221,0.0,0.0,26,0.00,,---,0.00,VWS V14.01,2013-01-07 20:19:00,
2013-01-07 14:24:00,52.0,18.2,29.03,SSW,207,3.1,3.1,26,0.00,,---,0.00,VWS V14.01,2013-01-07 20:24:00,
2013-01-07 14:29:00,52.7,18.8,29.03,SSW,199,2.7,2.7,26,0.00,,---,0.00,VWS V14.01,2013-01-07 20:29:00,
2013-01-07 14:35:00,52.9,19.0,29.03,South,171,2.7,2.7,26,0.00,,---,0.00,VWS V14.01,2013-01-07 20:35:00,
2013-01-07 14:40:00,52.9,19.0,29.03,SSE,153,0.0,0.0,26,0.00,,---,0.00,VWS V14.01,2013-01-07 20:40:00,
2013-01-07 14:45:00,52.7,18.8,29.03,SSE,154,0.0,4.0,26,0.00,,---,0.00,VWS V14.01,2013-01-07 20:45:00,
2013-01-07 14:50:00,52.7,18.8,29.03,SSE,156,8.1,8.1,26,0.00,,---,0.00,VWS V14.01,2013-01-07 20:50:00,
2013-01-07 14:56:00,52.7,18.8,29.03,West,266,2.7,5.8,26,0.00,,---,0.00,VWS V14.01,2013-01-07 20:56:00,
2013-01-07 15:01:00,52.9,19.0,29.03,SW,214,3.6,3.6,26,0.00,,---,0.00,VWS V14.01,2013-01-07 21:01:00,
2013-01-07 15:06:00,52.9,19.0,29.03,SE,146,0.0,4.0,26,0.00,,---,0.00,VWS V14.01,2013-01-07 21:06:00,
2013-01-07 15:11:00,53.1,19.1,29.03,WNW,290,3.6,4.0,26,0.00,,---,0.00,VWS V14.01,2013-01-07 21:11:00,
2013-01-07 15:17:00,53.2,19.3,29.00,SW,221,3.6,3.6,26,0.00,,---,0.00,VWS V14.01,2013-01-07 21:17:00,
2013-01-07 15:22:00,53.8,18.8,29.00,West,263,7.6,7.6,25,0.00,,---,0.00,VWS V14.01,2013-01-07 21:22:00,
2013-01-07 15:27:00,54.0,19.0,29.00,SE,129,7.6,7.6,25,0.00,,---,0.00,VWS V14.01,2013-01-07 21:27:00,
2013-01-07 15:32:00,54.0,19.0,29.00,NNE,18,6.3,6.3,25,0.00,,---,0.00,VWS V14.01,2013-01-07 21:32:00,
2013-01-07 15:38:00,54.0,19.0,29.00,NNE,30,2.2,2.2,25,0.00,,---,0.00,VWS V14.01,2013-01-07 21:38:00,
2013-01-07 15:43:00,54.0,19.9,29.00,West,267,3.6,3.6,26,0.00,,---,0.00,VWS V14.01,2013-01-07 21:43:00,
2013-01-07 15:48:00,54.1,19.1,29.00,SSE,164,4.0,5.4,25,0.00,,---,0.00,VWS V14.01,2013-01-07 21:48:00,
2013-01-07 15:53:00,54.1,19.1,29.00,SW,222,0.0,2.7,25,0.00,,---,0.00,VWS V14.01,2013-01-07 21:53:00,
2013-01-07 15:59:00,54.3,19.3,29.00,WSW,237,2.2,2.2,25,0.00,,---,0.00,VWS V14.01,2013-01-07 21:59:00,
2013-01-07 16:04:00,53.4,19.4,29.00,West,265,3.6,3.6,26,0.00,,---,0.00,VWS V14.01,2013-01-07 22:04:00,
2013-01-07 16:10:00,52.7,18.8,29.00,NNE,32,0.0,2.7,26,0.00,,---,0.00,VWS V14.01,2013-01-07 22:10:00,
2013-01-07 16:16:00,52.5,18.6,29.00,SSE,153,0.0,0.0,26,0.00,,---,0.00,VWS V14.01,2013-01-07 22:16:00,
2013-01-07 16:21:00,51.3,17.6,29.00,SSE,158,0.0,3.1,26,0.00,,---,0.00,VWS V14.01,2013-01-07 22:21:00,
2013-01-07 16:26:00,51.3,17.6,29.00,SSE,157,0.0,0.0,26,0.00,,---,0.00,VWS V14.01,2013-01-07 22:26:00,
2013-01-07 16:31:00,50.5,17.0,29.00,SSE,151,0.0,0.0,26,0.00,,---,0.00,VWS V14.01,2013-01-07 22:31:00,
2013-01-07 16:36:00,49.6,17.0,29.00,SSE,151,0.0,0.0,27,0.00,,---,0.00,VWS V14.01,2013-01-07 22:36:00,
2013-01-07 16:41:00,48.9,16.4,29.00,SE,128,0.0,0.0,27,0.00,,---,0.00,VWS V14.01,2013-01-07 22:41:00,
2013-01-07 16:46:00,48.6,16.1,29.00,SSE,158,0.0,0.0,27,0.00,,---,0.00,VWS V14.01,2013-01-07 22:46:00,
2013-01-07 16:51:00,48.2,15.8,29.00,WNW,285,0.0,0.0,27,0.00,,---,0.00,VWS V14.01,2013-01-07 22:51:00,
2013-01-07 16:57:00,47.8,15.5,29.00,SE,140,3.6,3.6,27,0.00,,---,0.00,VWS V14.01,2013-01-07 22:57:00,
2013-01-07 17:02:00,47.5,15.2,29.00,SE,142,0.0,0.0,27,0.00,,---,0.00,VWS V14.01,2013-01-07 23:02:00,
2013-01-07 17:07:00,47.5,15.2,29.00,West,261,0.0,0.0,27,0.00,,---,0.00,VWS V14.01,2013-01-07 23:07:00,
2013-01-07 17:13:00,47.5,15.2,29.00,West,265,0.0,0.0,27,0.00,,---,0.00,VWS V14.01,2013-01-07 23:13:00,
2013-01-07 17:19:00,46.2,14.9,29.00,WNW,291,0.0,0.0,28,0.00,,---,0.00,VWS V14.01,2013-01-07 23:19:00,
2013-01-07 17:24:00,45.9,14.6,29.00,South,191,4.0,4.9,28,0.00,,---,0.00,VWS V14.01,2013-01-07 23:24:00,
2013-01-07 17:30:00,45.5,14.3,29.00,West,276,0.0,0.0,28,0.00,,---,0.00,VWS V14.01,2013-01-07 23:30:00,
2013-01-07 17:35:00,45.3,14.1,29.00,South,179,0.0,2.2,28,0.00,,---,0.00,VWS V14.01,2013-01-07 23:35:00,
2013-01-07 17:41:00,45.1,14.0,29.00,SE,137,0.0,2.2,28,0.00,,---,0.00,VWS V14.01,2013-01-07 23:41:00,
2013-01-07 17:47:00,44.6,14.3,29.00,NNE,33,0.0,0.0,29,0.00,,---,0.00,VWS V14.01,2013-01-07 23:47:00,
2013-01-07 17:52:00,44.6,14.3,29.00,WSW,238,0.0,3.6,29,0.00,,---,0.00,VWS V14.01,2013-01-07 23:52:00,
2013-01-07 17:58:00,43.7,14.3,29.00,West,278,3.6,3.6,30,0.00,,---,0.00,VWS V14.01,2013-01-07 23:58:00,
2013-01-07 18:03:00,43.7,14.3,29.00,WSW,251,0.0,0.0,30,0.00,,---,0.00,VWS V14.01,2013-01-08 00:03:00,
2013-01-07 18:08:00,43.5,14.2,29.00,West,265,0.0,4.0,30,0.00,,---,0.00,VWS V14.01,2013-01-08 00:08:00,
2013-01-07 18:13:00,43.3,14.0,29.00,West,279,2.2,2.2,30,0.00,,---,0.00,VWS V14.01,2013-01-08 00:13:00,
2013-01-07 18:19:00,43.2,14.6,29.00,WNW,301,0.0,0.0,31,0.00,,---,0.00,VWS V14.01,2013-01-08 00:19:00,
2013-01-07 18:25:00,43.2,14.6,29.00,SE,131,0.0,0.0,31,0.00,,---,0.00,VWS V14.01,2013-01-08 00:25:00,
2013-01-07 18:30:00,43.2,14.6,29.00,West,266,0.0,2.7,31,0.00,,---,0.00,VWS V14.01,2013-01-08 00:30:00,
2013-01-07 18:35:00,43.0,14.4,29.00,South,172,0.0,3.6,31,0.00,,---,0.00,VWS V14.01,2013-01-08 00:35:00,
2013-01-07 18:40:00,43.0,14.4,29.00,NW,306,0.0,2.2,31,0.00,,---,0.00,VWS V14.01,2013-01-08 00:40:00,
2013-01-07 18:46:00,43.0,14.4,29.00,SW,234,4.0,4.0,31,0.00,,---,0.00,VWS V14.01,2013-01-08 00:46:00,
2013-01-07 18:51:00,43.0,14.4,29.00,West,276,0.0,0.0,31,0.00,,---,0.00,VWS V14.01,2013-01-08 00:51:00,
2013-01-07 18:56:00,43.0,14.4,29.00,NW,308,0.0,0.0,31,0.00,,---,0.00,VWS V14.01,2013-01-08 00:56:00,
2013-01-07 19:01:00,42.8,14.3,29.00,ENE,61,0.0,2.2,31,0.00,,---,0.00,VWS V14.01,2013-01-08 01:01:00,
2013-01-07 19:06:00,42.8,14.3,29.00,SW,228,4.0,4.0,31,0.00,,---,0.00,VWS V14.01,2013-01-08 01:06:00,
2013-01-07 19:12:00,42.8,15.0,29.00,SSW,210,4.0,4.9,32,0.00,,---,0.00,VWS V14.01,2013-01-08 01:12:00,
2013-01-07 19:17:00,42.4,14.7,29.00,WSW,257,0.0,0.0,32,0.00,,---,0.00,VWS V14.01,2013-01-08 01:17:00,
2013-01-07 19:22:00,42.3,15.2,29.00,NW,307,3.1,3.6,33,0.00,,---,0.00,VWS V14.01,2013-01-08 01:22:00,
2013-01-07 19:28:00,42.1,15.1,29.00,North,8,2.2,2.2,33,0.00,,---,0.00,VWS V14.01,2013-01-08 01:28:00,
2013-01-07 19:33:00,42.1,15.1,28.97,NW,313,3.1,3.1,33,0.00,,---,0.00,VWS V14.01,2013-01-08 01:33:00,
2013-01-07 19:39:00,41.5,15.3,28.97,East,94,4.0,4.0,34,0.00,,---,0.00,VWS V14.01,2013-01-08 01:39:00,
2013-01-07 19:44:00,41.5,15.3,28.97,NW,324,2.7,6.3,34,0.00,,---,0.00,VWS V14.01,2013-01-08 01:44:00,
2013-01-07 19:50:00,41.5,16.6,28.97,SSE,160,2.2,2.2,36,0.00,,---,0.00,VWS V14.01,2013-01-08 01:50:00,
2013-01-07 19:55:00,41.4,16.4,28.97,SW,223,5.4,5.4,36,0.00,,---,0.00,VWS V14.01,2013-01-08 01:55:00,
2013-01-07 20:00:00,41.2,16.3,28.97,West,268,3.1,5.4,36,0.00,,---,0.00,VWS V14.01,2013-01-08 02:00:00,
2013-01-07 20:05:00,41.0,16.7,28.97,WSW,239,4.0,4.0,37,0.00,,---,0.00,VWS V14.01,2013-01-08 02:05:00,
2013-01-07 20:10:00,40.8,17.2,28.97,WNW,292,4.9,4.9,38,0.00,,---,0.00,VWS V14.01,2013-01-08 02:10:00,
2013-01-07 20:15:00,40.8,17.2,28.97,West,277,3.1,6.3,38,0.00,,---,0.00,VWS V14.01,2013-01-08 02:15:00,
2013-01-07 20:21:00,40.8,17.2,28.97,SSW,204,2.7,2.7,38,0.00,,---,0.00,VWS V14.01,2013-01-08 02:21:00,
2013-01-07 20:26:00,41.0,17.4,28.97,West,267,4.9,4.9,38,0.00,,---,0.00,VWS V14.01,2013-01-08 02:26:00,
2013-01-07 20:32:00,41.0,17.4,28.97,NW,323,0.0,5.4,38,0.00,,---,0.00,VWS V14.01,2013-01-08 02:32:00,
2013-01-07 20:37:00,41.0,17.4,28.97,SW,221,0.0,0.0,38,0.00,,---,0.00,VWS V14.01,2013-01-08 02:37:00,
2013-01-07 20:43:00,41.0,17.4,28.97,SW,222,5.4,5.4,38,0.00,,---,0.00,VWS V14.01,2013-01-08 02:43:00,
2013-01-07 20:49:00,40.8,17.2,28.97,WSW,247,2.2,2.2,38,0.00,,---,0.00,VWS V14.01,2013-01-08 02:49:00,
2013-01-07 20:54:00,40.8,17.2,28.97,West,281,5.4,6.3,38,0.00,,---,0.00,VWS V14.01,2013-01-08 02:54:00,
2013-01-07 20:59:00,40.6,17.6,28.97,NW,310,3.1,3.1,39,0.00,,---,0.00,VWS V14.01,2013-01-08 02:59:00,
2013-01-07 21:04:00,40.8,17.8,28.97,South,184,0.0,0.0,39,0.00,,---,0.00,VWS V14.01,2013-01-08 03:04:00,
2013-01-07 21:10:00,40.5,17.5,28.97,WSW,254,7.2,7.2,39,0.00,,---,0.00,VWS V14.01,2013-01-08 03:10:00,
2013-01-07 21:15:00,40.5,17.5,29.00,NW,313,0.0,0.0,39,0.00,,---,0.00,VWS V14.01,2013-01-08 03:15:00,
2013-01-07 21:21:00,40.3,17.3,29.00,WNW,291,0.0,2.2,39,0.00,,---,0.00,VWS V14.01,2013-01-08 03:21:00,
2013-01-07 21:27:00,40.1,17.1,29.00,South,186,0.0,0.0,39,0.00,,---,0.00,VWS V14.01,2013-01-08 03:27:00,
2013-01-07 21:32:00,39.9,17.0,29.00,West,271,0.0,0.0,39,0.00,,---,0.00,VWS V14.01,2013-01-08 03:32:00,
2013-01-07 21:37:00,39.7,16.8,29.00,SW,224,2.7,2.7,39,0.00,,---,0.00,VWS V14.01,2013-01-08 03:37:00,
2013-01-07 21:42:00,39.7,16.8,29.00,SE,138,2.2,2.2,39,0.00,,---,0.00,VWS V14.01,2013-01-08 03:42:00,
2013-01-07 21:47:00,39.7,16.8,29.00,NW,304,0.0,0.0,39,0.00,,---,0.00,VWS V14.01,2013-01-08 03:47:00,
2013-01-07 21:53:00,39.7,16.8,29.00,SW,224,3.1,6.3,39,0.00,,---,0.00,VWS V14.01,2013-01-08 03:53:00,
2013-01-07 21:59:00,39.6,16.7,29.00,West,260,0.0,0.0,39,0.00,,---,0.00,VWS V14.01,2013-01-08 03:59:00,
2013-01-07 22:04:00,39.6,16.7,28.97,South,190,0.0,0.0,39,0.00,,---,0.00,VWS V14.01,2013-01-08 04:04:00,
2013-01-07 22:09:00,39.6,16.7,28.97,West,271,0.0,5.4,39,0.00,,---,0.00,VWS V14.01,2013-01-08 04:09:00,
2013-01-07 22:14:00,39.4,16.5,28.97,SSW,210,0.0,2.7,39,0.00,,---,0.00,VWS V14.01,2013-01-08 04:14:00,
2013-01-07 22:19:00,39.4,16.5,28.97,SW,223,0.0,0.0,39,0.00,,---,0.00,VWS V14.01,2013-01-08 04:19:00,
2013-01-07 22:24:00,39.4,16.5,28.97,South,175,7.6,7.6,39,0.00,,---,0.00,VWS V14.01,2013-01-08 04:24:00,
2013-01-07 22:30:00,39.4,17.1,28.97,SSW,203,0.0,0.0,40,0.00,,---,0.00,VWS V14.01,2013-01-08 04:30:00,
2013-01-07 22:35:00,39.4,17.1,28.97,NW,305,0.0,0.0,40,0.00,,---,0.00,VWS V14.01,2013-01-08 04:35:00,
2013-01-07 22:41:00,39.2,16.9,28.97,SSW,205,2.7,2.7,40,0.00,,---,0.00,VWS V14.01,2013-01-08 04:41:00,
2013-01-07 22:46:00,39.2,16.9,28.97,West,265,4.5,4.5,40,0.00,,---,0.00,VWS V14.01,2013-01-08 04:46:00,
2013-01-07 22:52:00,39.2,16.9,28.97,South,185,0.0,0.0,40,0.00,,---,0.00,VWS V14.01,2013-01-08 04:52:00,
2013-01-07 22:58:00,39.2,16.9,28.97,SSW,213,0.0,0.0,40,0.00,,---,0.00,VWS V14.01,2013-01-08 04:58:00,
2013-01-07 23:00:00,39.2,16.9,28.97,SSW,205,0.0,0.0,40,0.00,,---,0.00,VWS V14.01,2013-01-08 05:00:00,
2013-01-07 23:01:00,39.2,16.9,28.97,SSW,205,0.0,0.0,40,0.00,,---,0.00,VWS V14.01,2013-01-08 05:01:00,
2013-01-07 23:03:00,39.2,16.9,28.97,South,183,0.0,0.0,40,0.00,,---,0.00,VWS V14.01,2013-01-08 05:03:00,
2013-01-07 23:05:00,39.0,16.8,28.97,South,187,0.0,0.0,40,0.00,,---,0.00,VWS V14.01,2013-01-08 05:05:00,
2013-01-07 23:10:00,38.8,16.6,28.97,SW,228,0.0,3.1,40,0.00,,---,0.00,VWS V14.01,2013-01-08 05:10:00,
2013-01-07 23:15:00,38.8,16.6,28.97,North,1,0.0,4.0,40,0.00,,---,0.00,VWS V14.01,2013-01-08 05:15:00,
2013-01-07 23:20:00,38.8,16.6,28.97,SSW,201,0.0,2.2,40,0.00,,---,0.00,VWS V14.01,2013-01-08 05:20:00,
2013-01-07 23:26:00,38.8,16.6,28.97,SSW,204,5.8,5.8,40,0.00,,---,0.00,VWS V14.01,2013-01-08 05:26:00,
2013-01-07 23:31:00,38.8,16.6,28.97,South,182,0.0,3.1,40,0.00,,---,0.00,VWS V14.01,2013-01-08 05:31:00,
2013-01-07 23:37:00,38.8,16.6,28.97,SSW,199,0.0,0.0,40,0.00,,---,0.00,VWS V14.01,2013-01-08 05:37:00,
2013-01-07 23:42:00,38.8,16.6,28.97,South,169,4.0,4.0,40,0.00,,---,0.00,VWS V14.01,2013-01-08 05:42:00,
2013-01-07 23:48:00,38.8,16.6,28.97,SW,220,0.0,0.0,40,0.00,,---,0.00,VWS V14.01,2013-01-08 05:48:00,
2013-01-07 23:53:00,38.8,16.6,28.97,SE,134,0.0,0.0,40,0.00,,---,0.00,VWS V14.01,2013-01-08 05:53:00,
2013-01-07 23:59:00,38.7,16.4,28.97,WSW,243,0.0,2.2,40,0.00,,---,0.00,VWS V14.01,2013-01-08 05:59:00,